Terminal Aerodrome Forecast
Issued by NWS

Current Version | Previous Version | Graphics & Text | Print | Product List | Glossary On
Versions: 1 2 3 4 5 6 7 8 9 10 11 12 13 14 15 16 17 18 19 20 21 22 23
154
FTUS41 KRLX 241500 AAA
TAFCKB
TAF AMD
KCKB 241500Z 2415/2512 24005KT P6SM BKN020
     FM241600 25008KT P6SM SCT020
     FM241800 25011G17KT P6SM SCT060
     FM242200 27009KT P6SM SCT060
     FM250100 00000KT P6SM SCT050=

USA.gov is the U.S. government's official web portal to all federal, state and local government web resources and services.